Time;durP1;ratioP1;P1;durP2;ratioP2;P2;SDS_P1;SDS_P2;PMS_P1;PMS_P2;Temp;Humidity;BMP_temperature;BMP_pressure;BME280_temperature;BME280_humidity;BME280_pressure;Samples;Min_cycle;Max_cycle;Signal;HPM_P1;HPM_P2
2021/06/14 00:00:15;;;;;;;10.73;7.63;;;18.60;81.40;;;;;;5037851;28;20551;-62
2021/06/14 00:02:43;;;;;;;10.83;6.90;;;18.60;81.50;;;;;;5046846;28;20478;-62
2021/06/14 00:05:14;;;;;;;11.27;7.73;;;18.50;81.40;;;;;;5045080;28;20467;-62
2021/06/14 00:07:41;;;;;;;9.40;5.87;;;18.40;81.50;;;;;;5045433;28;20537;-62
2021/06/14 00:10:13;;;;;;;11.37;6.77;;;18.40;81.60;;;;;;5044543;28;20534;-62
2021/06/14 00:12:40;;;;;;;10.10;6.77;;;18.40;81.70;;;;;;5045435;28;20462;-62
2021/06/14 00:15:09;;;;;;;8.83;6.27;;;18.40;81.90;;;;;;5050529;28;20560;-62
2021/06/14 00:17:36;;;;;;;7.50;5.80;;;18.40;82.00;;;;;;5043957;28;20467;-62
2021/06/14 00:20:06;;;;;;;8.50;6.00;;;18.40;82.00;;;;;;5048638;28;20490;-62
2021/06/14 00:22:32;;;;;;;10.17;5.70;;;18.40;82.20;;;;;;5048141;28;20483;-63
2021/06/14 00:24:59;;;;;;;8.50;6.50;;;18.40;82.20;;;;;;5049321;28;20538;-62
2021/06/14 00:27:28;;;;;;;9.53;6.00;;;18.40;82.50;;;;;;5051531;28;20516;-63
2021/06/14 00:29:54;;;;;;;7.00;5.20;;;18.30;82.50;;;;;;5044316;28;20837;-62
2021/06/14 00:32:21;;;;;;;6.33;5.70;;;18.30;82.80;;;;;;5045808;28;20467;-63
2021/06/14 00:34:48;;;;;;;8.87;5.80;;;18.30;82.90;;;;;;5047953;28;20478;-63
2021/06/14 00:37:15;;;;;;;7.60;6.33;;;18.30;83.10;;;;;;5053615;28;20471;-63
2021/06/14 00:39:42;;;;;;;7.13;5.40;;;18.30;83.10;;;;;;5055231;28;20514;-63
2021/06/14 00:42:09;;;;;;;10.60;6.70;;;18.30;83.20;;;;;;5052097;28;20805;-63
2021/06/14 00:44:37;;;;;;;9.00;6.33;;;18.30;83.40;;;;;;5046581;28;20471;-63
2021/06/14 00:47:07;;;;;;;7.93;6.23;;;18.30;83.50;;;;;;5045831;28;20817;-64
2021/06/14 00:49:34;;;;;;;13.50;6.00;;;18.20;83.40;;;;;;5047859;28;20976;-62
2021/06/14 00:52:01;;;;;;;7.67;6.10;;;18.20;83.70;;;;;;5044201;28;20464;-62
2021/06/14 00:54:28;;;;;;;10.47;6.40;;;18.20;83.90;;;;;;5045952;28;20472;-63
2021/06/14 00:56:55;;;;;;;7.97;6.50;;;18.20;84.10;;;;;;5038525;28;20555;-63
2021/06/14 00:59:22;;;;;;;8.93;6.00;;;18.20;84.30;;;;;;5045451;28;20593;-63
2021/06/14 01:01:50;;;;;;;12.30;6.10;;;18.20;85.00;;;;;;5035738;28;20504;-62
2021/06/14 01:04:17;;;;;;;7.30;6.30;;;18.20;84.40;;;;;;5039045;28;20548;-62
2021/06/14 01:06:45;;;;;;;9.23;6.63;;;18.20;84.50;;;;;;5045112;28;20467;-62
2021/06/14 01:09:12;;;;;;;8.70;7.40;;;18.20;84.70;;;;;;5039514;28;20487;-63
2021/06/14 01:11:45;;;;;;;9.83;6.77;;;18.20;84.80;;;;;;5044919;28;20555;-63
2021/06/14 01:14:18;;;;;;;10.97;7.67;;;18.10;84.90;;;;;;5046966;28;20542;-62
2021/06/14 01:16:50;;;;;;;8.70;6.00;;;18.10;85.20;;;;;;5039460;28;20487;-63
2021/06/14 01:19:50;;;;;;;8.47;6.10;;;18.10;85.50;;;;;;5035370;28;20876;-63
2021/06/14 01:22:39;;;;;;;8.33;5.67;;;18.10;85.70;;;;;;5046061;28;20526;-62
2021/06/14 01:25:10;;;;;;;9.73;6.77;;;18.00;86.10;;;;;;5046033;28;20460;-62
2021/06/14 01:27:43;;;;;;;8.27;6.57;;;18.00;86.10;;;;;;5052158;28;20546;-62
2021/06/14 01:30:12;;;;;;;8.77;6.17;;;17.90;86.20;;;;;;5044306;28;20547;-63
2021/06/14 01:32:41;;;;;;;9.13;6.40;;;17.90;86.30;;;;;;5045878;28;21930;-63
2021/06/14 01:35:12;;;;;;;7.40;5.67;;;17.90;86.50;;;;;;5043788;28;20471;-63
2021/06/14 01:37:44;;;;;;;6.67;5.83;;;17.90;86.90;;;;;;5040798;28;20491;-63
2021/06/14 01:40:12;;;;;;;6.47;5.43;;;17.90;87.00;;;;;;5048513;28;20472;-62
2021/06/14 01:42:42;;;;;;;6.37;5.43;;;17.90;87.00;;;;;;5043046;28;20922;-63
2021/06/14 01:45:10;;;;;;;6.93;6.20;;;17.90;87.00;;;;;;5043631;28;20547;-63
2021/06/14 01:47:37;;;;;;;7.97;6.80;;;17.90;87.20;;;;;;5042880;28;20494;-62
2021/06/14 01:50:06;;;;;;;9.90;7.83;;;17.90;87.50;;;;;;5039860;28;20464;-62
2021/06/14 01:52:33;;;;;;;10.10;7.77;;;17.90;87.70;;;;;;5051456;28;20783;-63
2021/06/14 01:55:00;;;;;;;7.90;5.53;;;17.90;88.00;;;;;;5039183;28;20553;-62
2021/06/14 01:57:28;;;;;;;7.50;6.27;;;17.90;88.10;;;;;;5039775;28;20554;-63
2021/06/14 01:59:59;;;;;;;9.00;6.83;;;17.90;88.20;;;;;;5045426;28;20563;-63
2021/06/14 02:02:26;;;;;;;7.60;5.87;;;17.90;88.30;;;;;;5041798;28;21018;-62
2021/06/14 02:04:53;;;;;;;10.03;6.93;;;17.90;88.50;;;;;;5051897;28;20467;-63
2021/06/14 02:07:29;;;;;;;6.83;6.13;;;17.80;88.80;;;;;;5051980;28;20550;-62
2021/06/14 02:10:00;;;;;;;8.80;7.87;;;17.80;89.00;;;;;;5046496;28;20462;-62
2021/06/14 02:12:29;;;;;;;9.40;7.03;;;17.80;89.30;;;;;;5051255;28;20546;-63
2021/06/14 02:14:57;;;;;;;9.70;6.60;;;17.80;89.60;;;;;;5052078;28;20467;-63
2021/06/14 02:17:30;;;;;;;8.80;6.30;;;17.80;89.80;;;;;;5051155;28;20506;-62
2021/06/14 02:19:59;;;;;;;13.50;6.93;;;17.80;90.00;;;;;;5051994;28;20467;-63
2021/06/14 02:22:26;;;;;;;7.90;5.43;;;17.80;90.10;;;;;;5051516;28;20961;-63
2021/06/14 02:24:53;;;;;;;6.10;5.30;;;17.80;90.10;;;;;;5052169;28;20460;-63
2021/06/14 02:27:20;;;;;;;10.47;5.93;;;17.80;90.20;;;;;;5051023;28;20481;-63
2021/06/14 02:29:48;;;;;;;7.37;4.90;;;17.80;90.20;;;;;;5047732;28;20546;-62
2021/06/14 02:32:16;;;;;;;6.73;5.40;;;17.80;90.10;;;;;;5043807;28;20566;-63
2021/06/14 02:34:44;;;;;;;6.20;5.47;;;17.70;90.10;;;;;;5045563;28;20470;-63
2021/06/14 02:37:12;;;;;;;8.97;6.00;;;17.70;90.30;;;;;;5059185;28;20475;-62
2021/06/14 02:39:39;;;;;;;8.73;5.10;;;17.70;90.30;;;;;;5048132;28;20477;-63
2021/06/14 02:42:08;;;;;;;8.03;5.13;;;17.60;90.40;;;;;;5044638;28;21003;-63
2021/06/14 02:44:36;;;;;;;6.40;5.50;;;17.60;90.50;;;;;;5052672;28;20888;-63
2021/06/14 02:47:08;;;;;;;7.57;5.07;;;17.60;90.50;;;;;;5051052;28;20857;-62
2021/06/14 02:49:37;;;;;;;7.07;5.40;;;17.60;90.60;;;;;;5048957;28;20491;-63
2021/06/14 02:52:09;;;;;;;7.10;5.47;;;17.60;90.60;;;;;;5047575;28;20452;-62
2021/06/14 02:54:39;;;;;;;8.23;5.03;;;17.50;90.60;;;;;;5035536;28;20478;-63
2021/06/14 02:57:10;;;;;;;7.67;5.20;;;17.50;90.60;;;;;;5035869;28;20473;-63
2021/06/14 02:59:38;;;;;;;8.37;5.53;;;17.50;90.60;;;;;;5050562;28;20478;-62
2021/06/14 03:02:06;;;;;;;7.33;4.93;;;17.50;90.60;;;;;;5055818;28;20541;-62
2021/06/14 03:04:34;;;;;;;6.60;5.17;;;17.50;90.80;;;;;;5055515;28;20521;-62
2021/06/14 03:07:03;;;;;;;7.00;5.57;;;17.40;90.80;;;;;;5055993;28;20562;-63
2021/06/14 03:09:30;;;;;;;8.03;4.40;;;17.40;90.90;;;;;;5055680;28;20482;-62
2021/06/14 03:11:59;;;;;;;7.57;5.00;;;17.40;91.00;;;;;;5055795;28;20726;-62
2021/06/14 03:14:27;;;;;;;7.10;5.07;;;17.40;91.00;;;;;;5055092;28;20467;-62
2021/06/14 03:16:54;;;;;;;6.50;5.03;;;17.40;91.10;;;;;;5054955;28;20878;-63
2021/06/14 03:19:23;;;;;;;6.97;5.30;;;17.40;91.20;;;;;;5055454;28;20543;-63
2021/06/14 03:21:51;;;;;;;7.67;6.20;;;17.40;91.20;;;;;;5055107;28;20463;-62
2021/06/14 03:24:19;;;;;;;9.20;6.27;;;17.40;91.30;;;;;;5055593;28;20469;-63
2021/06/14 03:26:48;;;;;;;9.20;6.60;;;17.40;91.30;;;;;;5054988;28;20554;-63
2021/06/14 03:29:20;;;;;;;10.07;5.13;;;17.40;91.40;;;;;;5055462;28;20463;-63
2021/06/14 03:31:49;;;;;;;9.30;5.40;;;17.40;91.40;;;;;;5054670;28;20461;-63
2021/06/14 03:34:18;;;;;;;7.57;5.77;;;17.40;91.50;;;;;;5055447;28;20491;-62
2021/06/14 03:36:46;;;;;;;7.90;5.57;;;17.40;91.50;;;;;;5054908;28;20549;-62
2021/06/14 03:39:16;;;;;;;6.33;5.60;;;17.40;91.60;;;;;;5053933;28;20558;-62
2021/06/14 03:41:45;;;;;;;8.50;5.50;;;17.40;91.60;;;;;;5054668;28;20479;-62
2021/06/14 03:44:12;;;;;;;7.13;4.97;;;17.40;91.60;;;;;;5055263;28;20509;-62
2021/06/14 03:46:40;;;;;;;6.23;5.37;;;17.40;91.70;;;;;;5054868;28;20463;-62
2021/06/14 03:49:07;;;;;;;6.00;5.30;;;17.40;91.70;;;;;;5055069;28;20479;-63
2021/06/14 03:51:35;;;;;;;7.27;5.80;;;17.40;91.70;;;;;;5054795;28;20493;-63
2021/06/14 03:54:02;;;;;;;6.63;5.30;;;17.40;91.70;;;;;;5055100;28;20564;-63
2021/06/14 03:56:31;;;;;;;8.33;6.13;;;17.50;91.80;;;;;;5054526;28;20459;-62
2021/06/14 03:59:00;;;;;;;7.83;5.97;;;17.50;91.60;;;;;;5055199;28;20833;-62
2021/06/14 04:01:28;;;;;;;6.87;5.83;;;17.50;91.60;;;;;;5055064;28;20467;-62
2021/06/14 04:04:22;;;;;;;7.90;5.60;;;17.50;91.60;;;;;;5054532;28;21186;-62
2021/06/14 04:06:49;;;;;;;8.00;5.10;;;17.50;91.60;;;;;;5054547;28;20521;-63
2021/06/14 04:09:15;;;;;;;7.70;5.77;;;17.60;91.70;;;;;;5054752;28;20471;-62
2021/06/14 04:11:42;;;;;;;5.90;4.83;;;17.60;91.70;;;;;;5054521;28;20467;-63
2021/06/14 04:14:10;;;;;;;7.63;5.30;;;17.60;91.60;;;;;;5054700;28;20463;-62
2021/06/14 04:16:37;;;;;;;6.50;5.80;;;17.60;91.60;;;;;;5054184;28;20473;-62
2021/06/14 04:19:04;;;;;;;7.10;5.33;;;17.70;91.60;;;;;;5054307;28;20562;-63
2021/06/14 04:21:31;;;;;;;5.60;5.10;;;17.70;91.60;;;;;;5053938;28;20812;-63
2021/06/14 04:23:58;;;;;;;5.90;4.97;;;17.70;91.50;;;;;;5054094;28;20467;-62
2021/06/14 04:26:24;;;;;;;8.27;6.50;;;17.70;91.50;;;;;;5054306;28;20551;-62
2021/06/14 04:28:51;;;;;;;6.27;4.40;;;17.70;91.40;;;;;;5053792;28;20481;-62
2021/06/14 04:31:19;;;;;;;7.17;6.47;;;17.70;91.50;;;;;;5054642;28;20467;-62
2021/06/14 04:33:46;;;;;;;5.40;4.90;;;17.80;91.50;;;;;;5053873;28;21021;-62
2021/06/14 04:36:13;;;;;;;9.50;5.60;;;17.80;91.60;;;;;;5054409;28;20470;-62
2021/06/14 04:38:40;;;;;;;7.43;5.30;;;17.90;92.00;;;;;;5053662;28;20463;-63
2021/06/14 04:41:07;;;;;;;8.30;5.90;;;17.90;91.60;;;;;;5054393;28;20481;-62
2021/06/14 04:43:34;;;;;;;6.10;5.50;;;17.90;91.50;;;;;;5054113;28;20467;-62
2021/06/14 04:46:01;;;;;;;10.57;6.30;;;18.00;91.50;;;;;;5053873;28;20459;-63
2021/06/14 04:48:29;;;;;;;9.37;5.70;;;18.00;91.50;;;;;;5053971;28;20558;-62
2021/06/14 04:50:56;;;;;;;12.00;6.70;;;18.10;91.50;;;;;;5053241;28;20534;-62
2021/06/14 04:53:23;;;;;;;7.40;5.50;;;18.10;91.40;;;;;;5054043;28;20544;-63
2021/06/14 04:55:50;;;;;;;8.80;6.10;;;18.20;91.40;;;;;;5053593;28;20550;-63
2021/06/14 04:58:16;;;;;;;8.47;6.30;;;18.20;91.30;;;;;;5053737;28;20538;-63
2021/06/14 05:00:43;;;;;;;7.00;6.07;;;18.30;91.30;;;;;;5053346;28;20543;-63
2021/06/14 05:03:11;;;;;;;8.77;6.70;;;18.30;91.30;;;;;;5053884;28;20543;-62
2021/06/14 05:05:39;;;;;;;8.03;6.13;;;18.40;91.30;;;;;;5053483;28;20472;-63
2021/06/14 05:08:07;;;;;;;9.20;6.97;;;18.40;91.30;;;;;;5053570;28;20858;-64
2021/06/14 05:10:34;;;;;;;6.93;5.80;;;18.50;91.30;;;;;;5053555;28;20459;-63
2021/06/14 05:13:00;;;;;;;7.47;5.90;;;18.50;91.10;;;;;;5053162;28;20903;-62
2021/06/14 05:15:27;;;;;;;9.97;7.10;;;18.60;91.00;;;;;;5053607;28;20463;-62
2021/06/14 05:17:54;;;;;;;9.37;5.93;;;18.70;90.80;;;;;;5052682;28;20475;-63
2021/06/14 05:20:21;;;;;;;8.40;6.50;;;18.70;90.70;;;;;;5053297;28;20476;-63
2021/06/14 05:22:49;;;;;;;7.50;6.00;;;18.80;90.70;;;;;;5052700;28;20479;-63
2021/06/14 05:25:16;;;;;;;8.90;6.33;;;18.80;90.50;;;;;;5053371;28;20557;-63
2021/06/14 05:27:43;;;;;;;7.20;6.27;;;18.90;90.50;;;;;;5052798;28;20543;-63
2021/06/14 05:30:11;;;;;;;8.50;6.50;;;18.90;90.40;;;;;;5053265;28;20481;-63
2021/06/14 05:32:39;;;;;;;10.10;5.73;;;19.00;90.40;;;;;;5053211;28;20825;-63
2021/06/14 05:35:07;;;;;;;6.80;5.60;;;19.10;90.40;;;;;;5052966;28;20524;-63
2021/06/14 05:37:34;;;;;;;10.30;7.00;;;19.00;90.30;;;;;;5052917;28;21019;-63
2021/06/14 05:40:04;;;;;;;14.13;8.50;;;19.10;90.20;;;;;;5052592;28;20467;-63
2021/06/14 05:42:31;;;;;;;6.03;5.20;;;19.20;90.10;;;;;;5053142;28;20558;-62
2021/06/14 05:44:58;;;;;;;9.73;7.63;;;19.20;89.70;;;;;;5052487;28;20550;-62
2021/06/14 05:47:25;;;;;;;12.37;7.63;;;19.30;89.60;;;;;;5052822;28;20547;-62
2021/06/14 05:49:52;;;;;;;13.17;7.77;;;19.40;89.50;;;;;;5052485;28;20553;-61
2021/06/14 05:52:19;;;;;;;15.40;10.60;;;19.50;89.20;;;;;;5052742;28;20465;-62
2021/06/14 05:54:46;;;;;;;15.80;8.77;;;19.50;88.80;;;;;;5052514;28;20640;-62
2021/06/14 05:57:15;;;;;;;10.27;7.90;;;19.60;88.70;;;;;;5052828;28;20545;-62
2021/06/14 05:59:42;;;;;;;10.93;7.00;;;19.70;88.60;;;;;;5052891;28;20549;-62
2021/06/14 06:02:09;;;;;;;13.43;8.60;;;19.80;88.10;;;;;;5051845;28;21217;-62
2021/06/14 06:04:36;;;;;;;11.70;6.60;;;19.90;87.60;;;;;;5052424;28;20466;-63
2021/06/14 06:07:03;;;;;;;12.00;7.87;;;20.00;87.50;;;;;;5052090;28;20474;-62
2021/06/14 06:09:30;;;;;;;6.90;6.20;;;20.10;87.20;;;;;;5052624;28;20545;-63
2021/06/14 06:11:57;;;;;;;6.70;5.90;;;20.30;86.60;;;;;;5052023;28;20481;-63
2021/06/14 06:14:26;;;;;;;10.90;7.77;;;20.50;85.50;;;;;;5052634;28;20545;-62
2021/06/14 06:16:53;;;;;;;8.90;6.57;;;20.50;83.00;;;;;;5052230;28;20471;-62
2021/06/14 06:19:20;;;;;;;10.50;6.23;;;20.70;82.50;;;;;;5052492;28;20538;-62
2021/06/14 06:21:47;;;;;;;8.67;5.73;;;20.90;81.90;;;;;;5051644;28;20536;-62
2021/06/14 06:24:14;;;;;;;9.80;6.40;;;21.10;81.40;;;;;;5052261;28;21098;-62
2021/06/14 06:26:41;;;;;;;7.50;5.17;;;21.30;80.40;;;;;;5052430;28;20546;-63
2021/06/14 06:29:08;;;;;;;6.63;4.60;;;21.50;79.50;;;;;;5051960;28;20489;-62
2021/06/14 06:31:36;;;;;;;9.17;5.37;;;21.70;79.00;;;;;;5052203;28;20467;-63
2021/06/14 06:34:03;;;;;;;7.40;4.80;;;21.90;78.10;;;;;;5052059;28;20463;-63
2021/06/14 06:36:30;;;;;;;5.10;4.60;;;22.00;77.10;;;;;;5052302;28;20482;-63
2021/06/14 06:38:57;;;;;;;6.50;4.70;;;22.20;76.70;;;;;;5051792;28;20471;-63
2021/06/14 06:41:24;;;;;;;6.20;4.80;;;22.20;76.10;;;;;;5052329;28;20538;-63
2021/06/14 06:43:51;;;;;;;6.17;4.73;;;22.40;76.00;;;;;;5051945;28;20854;-63
2021/06/14 06:46:18;;;;;;;8.23;5.00;;;22.60;75.40;;;;;;5052220;28;20963;-63
2021/06/14 06:48:46;;;;;;;7.60;4.17;;;22.70;75.00;;;;;;5052154;28;20475;-63
2021/06/14 06:51:13;;;;;;;7.57;5.00;;;22.90;74.70;;;;;;5052186;28;20469;-63
2021/06/14 06:53:40;;;;;;;8.37;5.13;;;23.20;74.70;;;;;;5052096;28;20477;-63
2021/06/14 06:56:07;;;;;;;8.67;5.47;;;23.40;73.70;;;;;;5051764;28;20881;-62
2021/06/14 06:58:34;;;;;;;8.60;5.00;;;23.60;73.00;;;;;;5052079;28;20558;-63
2021/06/14 07:01:01;;;;;;;6.90;4.50;;;23.80;73.10;;;;;;5051842;28;20550;-63
2021/06/14 07:03:28;;;;;;;5.23;3.80;;;23.90;70.90;;;;;;5052174;28;20542;-62
2021/06/14 07:05:57;;;;;;;6.60;4.30;;;24.10;70.00;;;;;;5051619;28;20474;-62
2021/06/14 07:08:23;;;;;;;4.90;4.30;;;24.20;69.40;;;;;;5052037;28;20567;-62
2021/06/14 07:10:50;;;;;;;5.00;4.40;;;24.30;68.40;;;;;;5051732;28;20542;-62
2021/06/14 07:13:17;;;;;;;5.90;4.37;;;24.40;68.40;;;;;;5053234;28;21010;-62
2021/06/14 07:15:44;;;;;;;6.97;3.70;;;24.50;67.70;;;;;;5055732;28;20465;-63
2021/06/14 07:18:11;;;;;;;5.80;4.37;;;24.50;67.20;;;;;;5055242;28;20459;-62
2021/06/14 07:20:38;;;;;;;5.30;4.10;;;24.50;67.20;;;;;;5055835;28;20477;-62
2021/06/14 07:23:06;;;;;;;5.07;4.20;;;24.50;67.10;;;;;;5055000;28;20493;-62
2021/06/14 07:25:33;;;;;;;7.23;4.20;;;24.60;67.00;;;;;;5055513;28;20459;-62
2021/06/14 07:28:00;;;;;;;6.27;4.20;;;24.60;66.60;;;;;;5055115;28;20546;-62
2021/06/14 07:30:27;;;;;;;6.43;4.00;;;24.50;66.30;;;;;;5055508;28;20486;-63
2021/06/14 07:32:54;;;;;;;7.90;5.70;;;24.60;66.30;;;;;;5054979;28;20485;-62
2021/06/14 07:35:20;;;;;;;9.17;5.80;;;24.80;66.50;;;;;;5055435;28;20542;-62
2021/06/14 07:37:47;;;;;;;6.80;4.37;;;24.80;65.20;;;;;;5055072;28;20489;-62
2021/06/14 07:40:16;;;;;;;5.43;4.93;;;24.90;65.50;;;;;;5054958;28;20459;-62
2021/06/14 07:42:44;;;;;;;7.23;4.77;;;25.10;65.40;;;;;;5055352;28;20478;-62
2021/06/14 07:45:11;;;;;;;6.07;4.23;;;25.20;63.60;;;;;;5054797;28;20472;-63
2021/06/14 07:47:39;;;;;;;8.90;4.80;;;25.30;63.40;;;;;;5055237;28;20471;-62
2021/06/14 07:50:07;;;;;;;10.57;5.63;;;25.40;62.80;;;;;;5054720;28;20468;-62
2021/06/14 07:52:35;;;;;;;7.70;4.23;;;25.50;62.60;;;;;;5055144;28;20471;-63
2021/06/14 07:55:02;;;;;;;4.97;3.80;;;25.60;61.90;;;;;;5054706;28;21060;-62
2021/06/14 07:57:30;;;;;;;5.40;3.93;;;25.80;61.50;;;;;;5055061;28;20870;-63
2021/06/14 07:59:57;;;;;;;6.90;4.33;;;25.80;61.40;;;;;;5054452;28;20875;-63
2021/06/14 08:02:23;;;;;;;7.30;4.07;;;26.00;61.00;;;;;;5054830;28;20559;-63
2021/06/14 08:04:50;;;;;;;5.43;4.83;;;26.00;60.20;;;;;;5054908;28;20463;-63
2021/06/14 08:07:17;;;;;;;5.17;4.70;;;26.20;58.90;;;;;;5054444;28;20550;-63
2021/06/14 08:09:45;;;;;;;8.10;4.20;;;26.30;58.90;;;;;;5054823;28;20550;-63
2021/06/14 08:12:12;;;;;;;9.63;5.40;;;26.30;59.00;;;;;;5054452;28;20471;-63
2021/06/14 08:14:40;;;;;;;4.63;4.10;;;26.30;58.50;;;;;;5054720;28;20467;-63
2021/06/14 08:17:07;;;;;;;4.30;3.90;;;26.40;58.40;;;;;;5054215;28;21013;-62
2021/06/14 08:19:39;;;;;;;8.00;3.80;;;26.40;57.90;;;;;;5054555;28;21185;-63
2021/06/14 08:22:24;;;;;;;6.77;4.40;;;26.40;57.70;;;;;;5053827;28;20472;-62
2021/06/14 08:25:03;;;;;;;5.43;3.30;;;26.40;57.60;;;;;;5053867;28;20541;-63
2021/06/14 08:27:31;;;;;;;6.77;3.90;;;26.50;57.70;;;;;;5054945;28;20471;-63
2021/06/14 08:29:59;;;;;;;8.77;3.57;;;26.40;57.40;;;;;;5054089;28;20467;-63
2021/06/14 08:32:26;;;;;;;4.80;3.50;;;26.40;57.30;;;;;;5054411;28;20467;-64
2021/06/14 08:34:53;;;;;;;5.70;3.80;;;26.50;56.90;;;;;;5054081;28;20809;-63
2021/06/14 08:37:20;;;;;;;4.13;3.37;;;26.50;57.10;;;;;;5054290;28;20546;-63
2021/06/14 08:39:47;;;;;;;4.00;3.60;;;26.60;56.90;;;;;;5053577;28;20546;-63
2021/06/14 08:42:14;;;;;;;4.37;3.83;;;26.60;57.00;;;;;;5054365;28;20538;-63
2021/06/14 08:44:42;;;;;;;4.00;3.63;;;26.60;56.70;;;;;;5053944;28;20477;-62
2021/06/14 08:47:12;;;;;;;4.37;3.50;;;26.70;55.70;;;;;;5053803;28;20550;-63
2021/06/14 08:49:39;;;;;;;4.80;3.50;;;26.70;55.80;;;;;;5053588;28;20474;-63
2021/06/14 08:52:07;;;;;;;5.77;3.70;;;26.60;55.80;;;;;;5054135;28;20541;-63
2021/06/14 08:54:37;;;;;;;5.47;4.23;;;26.60;55.70;;;;;;5053926;28;20805;-63
2021/06/14 08:57:05;;;;;;;9.80;4.50;;;26.50;55.30;;;;;;5053651;28;21165;-62
2021/06/14 08:59:32;;;;;;;5.23;4.73;;;26.50;55.10;;;;;;5053686;28;20485;-63
2021/06/14 09:01:59;;;;;;;6.60;4.27;;;26.40;55.70;;;;;;5053236;28;20471;-63
2021/06/14 09:04:28;;;;;;;5.33;3.63;;;26.40;55.30;;;;;;5053648;28;20996;-63
2021/06/14 09:06:55;;;;;;;5.20;3.27;;;26.30;55.40;;;;;;5053310;28;20463;-63
2021/06/14 09:09:21;;;;;;;4.00;3.60;;;26.20;55.50;;;;;;5053695;28;20475;-63
2021/06/14 09:11:51;;;;;;;4.67;4.20;;;26.20;55.70;;;;;;5053141;28;20467;-63
2021/06/14 09:14:20;;;;;;;3.10;2.80;;;26.10;56.00;;;;;;5053697;28;20992;-62
2021/06/14 09:16:47;;;;;;;5.70;3.90;;;26.00;55.30;;;;;;5052997;28;20481;-63
2021/06/14 09:19:30;;;;;;;4.60;3.37;;;26.00;55.00;;;;;;5053238;28;20463;-63
2021/06/14 09:21:57;;;;;;;6.33;3.50;;;26.00;55.00;;;;;;5052927;28;20471;-63
2021/06/14 09:24:25;;;;;;;6.33;4.60;;;25.80;55.40;;;;;;5053136;28;20554;-62
2021/06/14 09:26:53;;;;;;;5.57;4.13;;;25.70;56.00;;;;;;5052927;28;20851;-62
2021/06/14 09:29:27;;;;;;;7.17;4.50;;;25.70;56.60;;;;;;5053469;28;20542;-63
2021/06/14 09:31:58;;;;;;;6.80;5.70;;;25.60;56.90;;;;;;5052709;28;20463;-63
2021/06/14 09:34:41;;;;;;;9.53;4.70;;;25.60;56.60;;;;;;5053038;28;20538;-62
2021/06/14 09:37:11;;;;;;;4.33;3.80;;;25.60;56.90;;;;;;5051972;28;20543;-62
2021/06/14 09:39:40;;;;;;;5.03;3.77;;;25.60;56.10;;;;;;5052789;28;20626;-62
2021/06/14 09:42:17;;;;;;;3.47;3.17;;;25.60;55.80;;;;;;5052631;28;20463;-62
2021/06/14 09:44:45;;;;;;;5.07;4.40;;;25.60;56.30;;;;;;5053072;28;20787;-62
2021/06/14 09:47:16;;;;;;;5.63;4.33;;;25.50;56.10;;;;;;5052489;28;20572;-63
2021/06/14 09:49:56;;;;;;;5.97;5.37;;;25.50;56.50;;;;;;5052767;28;20546;-63
2021/06/14 09:52:27;;;;;;;6.23;3.73;;;25.40;56.50;;;;;;5053240;28;20463;-63
2021/06/14 09:54:54;;;;;;;4.33;3.70;;;25.40;56.40;;;;;;5052514;28;21051;-64
2021/06/14 09:57:27;;;;;;;5.07;3.70;;;25.40;56.40;;;;;;5052910;28;20482;-63
2021/06/14 09:59:54;;;;;;;4.37;3.30;;;25.40;56.40;;;;;;5052257;28;20467;-63
2021/06/14 10:02:21;;;;;;;4.00;3.33;;;25.40;56.50;;;;;;5052694;28;20976;-63
2021/06/14 10:04:52;;;;;;;5.13;3.10;;;25.40;56.60;;;;;;5052401;28;20537;-62
2021/06/14 10:07:20;;;;;;;4.57;3.40;;;25.40;56.80;;;;;;5052812;28;20471;-62
2021/06/14 10:09:48;;;;;;;8.10;4.00;;;25.50;56.60;;;;;;5052139;28;20467;-62
2021/06/14 10:12:21;;;;;;;3.90;3.50;;;25.50;56.90;;;;;;5052929;28;20478;-63
2021/06/14 10:14:57;;;;;;;8.43;4.60;;;25.50;57.00;;;;;;5052241;28;20467;-64
2021/06/14 10:17:32;;;;;;;4.27;3.87;;;25.50;57.30;;;;;;5052603;28;20478;-62
2021/06/14 10:20:12;;;;;;;4.10;3.67;;;25.50;57.10;;;;;;5052166;28;20459;-63
2021/06/14 10:22:39;;;;;;;5.50;4.10;;;25.60;57.30;;;;;;5051961;28;20964;-63
2021/06/14 10:25:08;;;;;;;6.47;3.97;;;25.60;56.50;;;;;;5052565;28;20572;-64
2021/06/14 10:27:35;;;;;;;8.00;4.13;;;25.60;56.40;;;;;;5052154;28;20543;-63
2021/06/14 10:30:05;;;;;;;5.53;4.40;;;25.60;56.40;;;;;;5052361;28;20465;-64
2021/06/14 10:32:33;;;;;;;3.73;2.80;;;25.60;56.30;;;;;;5052168;28;20550;-63
2021/06/14 10:35:01;;;;;;;4.40;4.00;;;25.60;55.40;;;;;;5052201;28;21318;-63
2021/06/14 10:37:30;;;;;;;3.10;2.80;;;25.60;55.30;;;;;;5052300;28;20558;-63
2021/06/14 10:39:58;;;;;;;5.00;3.33;;;25.60;55.40;;;;;;5051861;28;20474;-63
2021/06/14 10:42:26;;;;;;;3.90;3.17;;;25.50;55.70;;;;;;5052311;28;20463;-63
2021/06/14 10:44:53;;;;;;;4.47;4.07;;;25.60;55.90;;;;;;5051996;28;20494;-63
2021/06/14 10:47:20;;;;;;;3.93;3.47;;;25.60;56.30;;;;;;5052105;28;20562;-63
2021/06/14 10:49:53;;;;;;;5.40;4.00;;;25.60;56.10;;;;;;5055613;28;20479;-63
2021/06/14 10:52:20;;;;;;;4.40;3.50;;;25.60;56.00;;;;;;5055925;28;20467;-63
2021/06/14 10:54:48;;;;;;;5.80;3.10;;;25.70;56.40;;;;;;5055653;28;20566;-63
2021/06/14 10:57:15;;;;;;;3.73;3.40;;;25.70;56.00;;;;;;5056327;28;20471;-63
2021/06/14 10:59:44;;;;;;;4.00;3.40;;;25.70;55.70;;;;;;5055681;28;20481;-63
2021/06/14 11:02:12;;;;;;;5.90;3.90;;;25.80;55.30;;;;;;5056180;28;20487;-62
2021/06/14 11:04:39;;;;;;;4.50;4.07;;;25.80;55.40;;;;;;5055758;28;20467;-63
2021/06/14 11:07:07;;;;;;;6.00;3.50;;;25.80;55.60;;;;;;5055943;28;20544;-63
2021/06/14 11:09:38;;;;;;;6.63;3.60;;;25.80;55.50;;;;;;5055947;28;20473;-63
2021/06/14 11:12:08;;;;;;;5.10;3.80;;;25.90;55.40;;;;;;5055616;28;21216;-63
2021/06/14 11:14:39;;;;;;;4.70;2.87;;;25.90;55.20;;;;;;5055955;28;20463;-62
2021/06/14 11:17:18;;;;;;;2.80;2.53;;;25.90;55.30;;;;;;5055321;28;20550;-63
2021/06/14 11:19:46;;;;;;;6.43;4.37;;;25.90;55.10;;;;;;5055124;28;20546;-63
2021/06/14 11:22:13;;;;;;;3.33;3.00;;;26.00;55.20;;;;;;5055656;28;20547;-63
2021/06/14 11:24:42;;;;;;;3.20;2.90;;;26.00;55.20;;;;;;5055175;28;20554;-63
2021/06/14 11:27:11;;;;;;;3.23;3.03;;;26.10;54.60;;;;;;5055082;28;21363;-63
2021/06/14 11:29:47;;;;;;;4.47;2.83;;;26.10;54.60;;;;;;5055552;28;20546;-63
2021/06/14 11:32:20;;;;;;;3.13;2.70;;;26.20;54.90;;;;;;5055142;28;20550;-63
2021/06/14 11:34:51;;;;;;;3.53;2.97;;;26.30;55.30;;;;;;5055396;28;20881;-63
2021/06/14 11:37:18;;;;;;;4.60;2.63;;;26.30;54.60;;;;;;5055310;28;20469;-63
2021/06/14 11:39:45;;;;;;;7.10;3.73;;;26.30;55.50;;;;;;5055222;28;20469;-63
2021/06/14 11:42:17;;;;;;;4.23;3.50;;;26.40;54.70;;;;;;5054889;28;20469;-63
2021/06/14 11:44:52;;;;;;;6.33;4.07;;;26.40;53.90;;;;;;5055359;28;20968;-62
2021/06/14 11:47:20;;;;;;;6.13;3.27;;;26.40;53.80;;;;;;5054944;28;20558;-62
2021/06/14 11:49:49;;;;;;;3.30;3.00;;;26.50;53.20;;;;;;5055101;28;20899;-62
2021/06/14 11:52:25;;;;;;;3.50;2.87;;;26.50;53.30;;;;;;5054752;28;20474;-63
2021/06/14 11:54:56;;;;;;;4.33;2.63;;;26.50;52.80;;;;;;5055419;28;20482;-63
2021/06/14 11:57:29;;;;;;;3.63;2.77;;;26.50;52.90;;;;;;5054846;28;20482;-63
2021/06/14 11:59:56;;;;;;;3.43;2.33;;;26.50;53.00;;;;;;5053984;28;20572;-62
2021/06/14 12:02:24;;;;;;;2.83;2.63;;;26.50;52.60;;;;;;5054481;28;20455;-63
2021/06/14 12:04:53;;;;;;;3.40;3.10;;;26.50;53.30;;;;;;5055090;28;20537;-63
2021/06/14 12:07:31;;;;;;;3.40;2.87;;;26.60;53.20;;;;;;5054489;28;20957;-62
2021/06/14 12:10:01;;;;;;;4.90;3.50;;;26.60;53.50;;;;;;5054805;28;20471;-62
2021/06/14 12:12:29;;;;;;;4.97;3.27;;;26.60;53.50;;;;;;5054576;28;20543;-63
2021/06/14 12:14:57;;;;;;;3.40;2.87;;;26.60;53.50;;;;;;5054728;28;21005;-63
2021/06/14 12:17:28;;;;;;;3.63;3.00;;;26.70;53.60;;;;;;5054266;28;20479;-62
2021/06/14 12:19:56;;;;;;;4.90;3.20;;;26.80;52.70;;;;;;5054664;28;20478;-63
2021/06/14 12:22:23;;;;;;;4.43;2.70;;;26.80;52.90;;;;;;5054263;28;21013;-63
2021/06/14 12:24:52;;;;;;;2.50;2.30;;;26.80;52.50;;;;;;5054522;28;20519;-63
2021/06/14 12:27:20;;;;;;;2.53;2.33;;;26.80;52.70;;;;;;5053977;28;20554;-63
2021/06/14 12:29:56;;;;;;;3.33;2.27;;;26.80;52.10;;;;;;5054511;28;20481;-63
2021/06/14 12:32:23;;;;;;;4.20;3.00;;;26.80;52.70;;;;;;5053849;28;20484;-63
2021/06/14 12:34:50;;;;;;;3.10;2.60;;;26.80;53.10;;;;;;5054395;28;20483;-63
2021/06/14 12:37:22;;;;;;;4.30;2.67;;;26.80;53.00;;;;;;5050037;28;20556;-62
2021/06/14 12:40:00;;;;;;;4.43;2.73;;;26.80;53.80;;;;;;5047599;28;20486;-62
2021/06/14 12:42:27;;;;;;;2.30;2.10;;;26.90;54.60;;;;;;5035749;28;20543;-62
2021/06/14 12:45:01;;;;;;;3.43;2.40;;;26.90;54.80;;;;;;5037129;28;20813;-62
2021/06/14 12:47:30;;;;;;;2.90;2.20;;;26.90;53.30;;;;;;5053704;28;20470;-62
2021/06/14 12:49:59;;;;;;;4.30;2.43;;;26.90;53.00;;;;;;5054136;28;20477;-62
2021/06/14 12:52:29;;;;;;;3.03;2.80;;;26.90;52.70;;;;;;5053667;28;20435;-62